Time;durP1;ratioP1;P1;durP2;ratioP2;P2;SDS_P1;SDS_P2;PMS_P1;PMS_P2;Temp;Humidity;BMP_temperature;BMP_pressure;BME280_temperature;BME280_humidity;BME280_pressure;Samples;Min_cycle;Max_cycle;Signal;HPM_P1;HPM_P2
2022/03/14 00:01:20;;;;;;;24.17;10.40;;;4.50;75.60;;;;;;5010347;28;20539;-66
2022/03/14 00:03:50;;;;;;;25.45;9.82;;;4.60;69.50;;;;;;5009595;28;20062;-66
2022/03/14 00:06:16;;;;;;;34.13;13.77;;;4.70;67.40;;;;;;5010332;28;20037;-65
2022/03/14 00:08:44;;;;;;;32.03;13.75;;;4.60;75.40;;;;;;5012945;28;20359;-65
2022/03/14 00:11:11;;;;;;;30.50;12.20;;;4.30;78.60;;;;;;5009302;28;20451;-66
2022/03/14 00:13:37;;;;;;;32.80;13.50;;;4.20;79.00;;;;;;5022624;28;20488;-66
2022/03/14 00:16:03;;;;;;;36.85;13.30;;;4.30;79.90;;;;;;5017167;28;20076;-66
2022/03/14 00:18:32;;;;;;;31.05;13.30;;;4.20;81.10;;;;;;5013017;28;20027;-66
2022/03/14 00:20:58;;;;;;;29.23;12.50;;;4.10;82.50;;;;;;5010024;28;20444;-65
2022/03/14 00:23:26;;;;;;;31.20;12.52;;;4.00;84.20;;;;;;5011530;28;20117;-66
2022/03/14 00:25:52;;;;;;;32.78;12.98;;;4.10;84.00;;;;;;5010598;28;20493;-66
2022/03/14 00:28:18;;;;;;;32.53;12.48;;;4.10;84.80;;;;;;5010244;28;20532;-66
2022/03/14 00:30:45;;;;;;;34.40;13.32;;;4.10;85.50;;;;;;5019130;28;20083;-66
2022/03/14 00:33:11;;;;;;;29.55;13.48;;;4.10;86.80;;;;;;5011450;28;20137;-66
2022/03/14 00:35:37;;;;;;;31.98;12.80;;;4.00;89.40;;;;;;5009247;28;20121;-66
2022/03/14 00:38:02;;;;;;;32.88;13.32;;;4.10;89.50;;;;;;5022003;28;20079;-65
2022/03/14 00:40:28;;;;;;;31.40;13.20;;;4.10;88.50;;;;;;5014173;28;20060;-65
2022/03/14 00:42:54;;;;;;;34.13;13.93;;;4.10;88.80;;;;;;5011043;28;20036;-67
2022/03/14 00:45:24;;;;;;;31.83;13.45;;;4.00;90.20;;;;;;5009826;28;20061;-66
2022/03/14 00:47:50;;;;;;;24.70;9.83;;;4.00;90.60;;;;;;5009186;28;20032;-66
2022/03/14 00:50:16;;;;;;;29.17;12.27;;;4.00;89.60;;;;;;5010948;28;20113;-66
2022/03/14 00:52:42;;;;;;;28.73;12.50;;;4.00;90.60;;;;;;5012867;28;20054;-66
2022/03/14 00:55:08;;;;;;;26.92;12.45;;;3.90;91.90;;;;;;5009675;28;20448;-66
2022/03/14 00:57:34;;;;;;;27.58;11.18;;;4.00;90.30;;;;;;5008580;28;20041;-66
2022/03/14 01:00:00;;;;;;;28.60;11.30;;;4.20;91.70;;;;;;5010086;28;20033;-66
2022/03/14 01:02:26;;;;;;;29.88;11.65;;;4.30;91.90;;;;;;5009484;28;20054;-66
2022/03/14 01:04:52;;;;;;;27.05;11.65;;;4.40;92.60;;;;;;5020111;28;20536;-66
2022/03/14 01:07:17;;;;;;;28.50;12.10;;;4.40;94.30;;;;;;5018593;28;20053;-66
2022/03/14 01:09:43;;;;;;;30.40;12.38;;;4.40;95.30;;;;;;5012446;28;20105;-66
2022/03/14 01:12:09;;;;;;;31.85;12.55;;;4.30;95.00;;;;;;5012633;28;20022;-66
2022/03/14 01:14:35;;;;;;;30.58;12.55;;;4.30;93.80;;;;;;5008196;28;20092;-66
2022/03/14 01:17:00;;;;;;;29.33;12.85;;;4.30;94.00;;;;;;5009608;28;20389;-66
2022/03/14 01:19:26;;;;;;;34.88;13.93;;;4.30;95.50;;;;;;5007859;28;20808;-67
2022/03/14 01:21:52;;;;;;;29.45;13.07;;;4.30;97.00;;;;;;5008728;28;20423;-66
2022/03/14 01:24:18;;;;;;;32.67;13.32;;;4.20;97.60;;;;;;5013899;28;20030;-66
2022/03/14 01:26:44;;;;;;;31.73;13.38;;;4.20;98.10;;;;;;5016918;28;20037;-67
2022/03/14 01:29:10;;;;;;;31.38;13.77;;;4.30;98.70;;;;;;5018464;28;20034;-67
2022/03/14 01:31:36;;;;;;;31.83;13.27;;;4.30;97.30;;;;;;5016876;28;20038;-66
2022/03/14 01:34:03;;;;;;;31.70;13.65;;;4.20;99.80;;;;;;5013949;28;20029;-66
2022/03/14 01:36:29;;;;;;;37.17;14.48;;;4.20;99.80;;;;;;5017739;28;20041;-66
2022/03/14 01:38:55;;;;;;;35.20;13.60;;;4.30;99.90;;;;;;5014829;28;20026;-65
2022/03/14 01:41:22;;;;;;;29.50;12.75;;;4.30;99.90;;;;;;5016914;28;20548;-66
2022/03/14 01:43:49;;;;;;;31.73;13.55;;;4.40;99.90;;;;;;5014665;28;20030;-65
2022/03/14 01:46:16;;;;;;;33.17;13.93;;;4.40;99.90;;;;;;5025955;28;20483;-67
2022/03/14 01:48:43;;;;;;;31.98;12.98;;;4.40;99.90;;;;;;5014120;28;20686;-67
2022/03/14 01:51:09;;;;;;;28.27;12.73;;;4.40;99.90;;;;;;5009973;28;20022;-66
2022/03/14 01:53:37;;;;;;;34.72;14.40;;;4.30;99.90;;;;;;5016420;28;20124;-66
2022/03/14 01:56:04;;;;;;;36.22;15.27;;;4.20;99.90;;;;;;5021891;28;20037;-66
2022/03/14 01:58:31;;;;;;;35.08;14.35;;;4.30;99.90;;;;;;5014240;28;20060;-66
2022/03/14 02:00:57;;;;;;;28.13;12.38;;;4.20;99.90;;;;;;5018420;28;20037;-65
2022/03/14 02:03:22;;;;;;;28.35;11.45;;;4.20;99.90;;;;;;5008673;28;20050;-65
2022/03/14 02:05:48;;;;;;;22.83;10.63;;;4.30;99.90;;;;;;5006939;28;20025;-65
2022/03/14 02:08:15;;;;;;;26.05;10.55;;;4.70;96.80;;;;;;5008323;28;20085;-66
2022/03/14 02:10:41;;;;;;;24.63;10.05;;;5.60;89.60;;;;;;5016935;28;20432;-65
2022/03/14 02:13:09;;;;;;;24.30;9.88;;;6.10;86.10;;;;;;5014867;28;20068;-66
2022/03/14 02:15:39;;;;;;;20.65;9.15;;;6.30;81.40;;;;;;5011885;28;20045;-65
2022/03/14 02:18:06;;;;;;;22.75;10.02;;;6.50;77.90;;;;;;5012829;28;20145;-66
2022/03/14 02:20:32;;;;;;;22.45;10.40;;;6.80;75.40;;;;;;5015812;28;20690;-66
2022/03/14 02:22:59;;;;;;;28.73;10.75;;;6.70;78.60;;;;;;5013798;28;20084;-66
2022/03/14 02:25:24;;;;;;;25.60;11.35;;;6.60;81.40;;;;;;5013259;28;20041;-66
2022/03/14 02:27:50;;;;;;;32.47;11.90;;;6.40;85.60;;;;;;5013282;28;20022;-66
2022/03/14 02:30:17;;;;;;;33.53;12.48;;;6.50;91.80;;;;;;5029365;28;20038;-65
2022/03/14 02:32:42;;;;;;;29.95;12.40;;;6.80;97.40;;;;;;5015402;28;20042;-65
2022/03/14 02:35:09;;;;;;;32.10;12.13;;;7.10;99.90;;;;;;5014985;28;20041;-66
2022/03/14 02:37:36;;;;;;;35.58;12.90;;;7.30;99.90;;;;;;5010653;28;20030;-66
2022/03/14 02:40:04;;;;;;;36.10;14.73;;;7.50;99.90;;;;;;5013281;28;20109;-66
2022/03/14 02:42:29;;;;;;;33.80;13.48;;;7.70;99.90;;;;;;5011469;28;20108;-65
2022/03/14 02:44:55;;;;;;;32.53;12.95;;;7.70;99.90;;;;;;5020596;28;20113;-67
2022/03/14 02:47:21;;;;;;;33.88;13.60;;;7.80;99.90;;;;;;5027824;28;20483;-66
2022/03/14 02:49:46;;;;;;;28.70;12.68;;;7.80;99.90;;;;;;5018199;28;20033;-66
2022/03/14 02:52:12;;;;;;;27.15;12.55;;;7.80;99.90;;;;;;5012502;28;20487;-66
2022/03/14 02:54:38;;;;;;;32.90;14.43;;;7.90;99.90;;;;;;5021037;28;20076;-65
2022/03/14 02:57:05;;;;;;;26.85;12.02;;;7.90;99.90;;;;;;5011756;28;20057;-66
2022/03/14 02:59:32;;;;;;;29.50;12.30;;;7.90;99.90;;;;;;5014902;28;20532;-66
2022/03/14 03:01:58;;;;;;;33.78;12.60;;;8.00;99.90;;;;;;5023788;28;20045;-66
2022/03/14 03:04:24;;;;;;;26.00;11.10;;;8.00;99.90;;;;;;5016531;28;20049;-68
2022/03/14 03:06:53;;;;;;;30.00;12.45;;;8.10;99.90;;;;;;5028210;28;20025;-66
2022/03/14 03:09:18;;;;;;;36.55;12.48;;;8.10;99.90;;;;;;5011863;28;20029;-66
2022/03/14 03:11:44;;;;;;;35.65;13.20;;;8.00;99.90;;;;;;5011280;28;20089;-67
2022/03/14 03:14:10;;;;;;;33.38;13.50;;;8.00;99.90;;;;;;5026704;28;20083;-66
2022/03/14 03:16:37;;;;;;;33.35;12.45;;;8.00;99.90;;;;;;5012135;28;20038;-66
2022/03/14 03:19:06;;;;;;;30.10;12.05;;;8.00;99.90;;;;;;5011652;28;20032;-66
2022/03/14 03:21:34;;;;;;;24.90;10.90;;;8.00;99.90;;;;;;5008121;28;20033;-66
2022/03/14 03:24:00;;;;;;;24.65;10.65;;;7.90;99.90;;;;;;5011562;28;20108;-66
2022/03/14 03:26:26;;;;;;;23.92;9.70;;;7.90;99.90;;;;;;5017629;28;20034;-67
2022/03/14 03:28:51;;;;;;;20.27;9.30;;;8.00;99.90;;;;;;5010656;28;20377;-68
2022/03/14 03:31:19;;;;;;;20.80;8.50;;;7.90;99.90;;;;;;5020133;28;20060;-67
2022/03/14 03:33:46;;;;;;;20.73;8.73;;;7.90;99.90;;;;;;5016194;28;20048;-66
2022/03/14 03:36:12;;;;;;;18.75;8.45;;;7.90;99.90;;;;;;5011343;28;20133;-66
2022/03/14 03:38:39;;;;;;;17.60;8.20;;;7.80;99.90;;;;;;5010539;28;20109;-66
2022/03/14 03:41:05;;;;;;;18.85;7.97;;;7.80;99.90;;;;;;5009768;28;20036;-67
2022/03/14 03:43:31;;;;;;;19.85;8.15;;;7.70;99.90;;;;;;5010874;28;20388;-66
2022/03/14 03:45:56;;;;;;;17.73;8.05;;;7.70;99.90;;;;;;5011151;28;20642;-67
2022/03/14 03:48:22;;;;;;;17.58;8.00;;;7.70;99.90;;;;;;5011945;28;20044;-66
2022/03/14 03:50:49;;;;;;;19.20;7.32;;;7.70;99.90;;;;;;5010103;28;20084;-67
2022/03/14 03:53:14;;;;;;;16.17;6.93;;;7.60;99.90;;;;;;5010913;28;20026;-67
2022/03/14 03:55:40;;;;;;;14.95;6.47;;;7.60;99.90;;;;;;5012199;28;20026;-66
2022/03/14 03:58:06;;;;;;;15.68;7.10;;;7.60;99.90;;;;;;5022148;28;20037;-67
2022/03/14 04:00:32;;;;;;;17.10;7.55;;;7.60;99.90;;;;;;5009505;28;20030;-66
2022/03/14 04:02:58;;;;;;;17.65;7.10;;;7.70;99.90;;;;;;5007808;28;20057;-66
2022/03/14 04:05:26;;;;;;;13.80;6.65;;;7.70;99.90;;;;;;5022401;28;20404;-66
2022/03/14 04:07:55;;;;;;;13.43;6.13;;;7.60;99.90;;;;;;5009853;28;20034;-67
2022/03/14 04:10:21;;;;;;;15.48;6.57;;;7.60;99.90;;;;;;5020566;28;20030;-67
2022/03/14 04:12:48;;;;;;;14.80;6.60;;;7.60;99.90;;;;;;5025955;28;20029;-67
2022/03/14 04:15:15;;;;;;;16.00;6.55;;;7.60;99.90;;;;;;5025551;28;20033;-67
2022/03/14 04:17:42;;;;;;;18.60;6.85;;;7.50;99.90;;;;;;5029465;28;20556;-66
2022/03/14 04:20:13;;;;;;;15.20;6.38;;;7.40;99.90;;;;;;5009652;28;20388;-67
2022/03/14 04:22:40;;;;;;;14.43;5.50;;;7.40;99.90;;;;;;5010024;28;20030;-65
2022/03/14 04:25:07;;;;;;;13.25;5.80;;;7.40;99.90;;;;;;5014770;28;20498;-66
2022/03/14 04:27:33;;;;;;;12.95;6.00;;;7.30;99.90;;;;;;5010158;28;20040;-67
2022/03/14 04:29:59;;;;;;;14.88;6.30;;;7.30;99.90;;;;;;5007236;28;20101;-66
2022/03/14 04:32:26;;;;;;;13.35;6.03;;;7.30;99.90;;;;;;5015813;28;20080;-67
2022/03/14 04:34:51;;;;;;;12.93;5.80;;;7.30;99.90;;;;;;5008899;28;20108;-67
2022/03/14 04:37:17;;;;;;;14.15;5.60;;;7.30;99.90;;;;;;5011769;28;20439;-67
2022/03/14 04:39:43;;;;;;;13.52;6.28;;;7.30;99.90;;;;;;5011238;28;20030;-66
2022/03/14 04:42:09;;;;;;;13.88;5.75;;;7.30;99.90;;;;;;5010296;28;20018;-67
2022/03/14 04:44:36;;;;;;;11.82;5.80;;;7.30;99.90;;;;;;5010050;28;20026;-67
2022/03/14 04:47:03;;;;;;;14.30;6.03;;;7.30;99.90;;;;;;5008539;28;20045;-65
2022/03/14 04:49:29;;;;;;;16.83;6.38;;;7.20;99.90;;;;;;5014737;28;20463;-66
2022/03/14 04:51:55;;;;;;;15.73;6.95;;;7.20;99.90;;;;;;5005779;28;20047;-67
2022/03/14 04:54:22;;;;;;;16.73;7.07;;;7.10;99.90;;;;;;5017717;28;20037;-67
2022/03/14 04:56:48;;;;;;;20.45;7.20;;;7.10;99.90;;;;;;5007112;28;20064;-67
2022/03/14 04:59:14;;;;;;;16.80;6.95;;;7.10;99.90;;;;;;5006140;28;20018;-65
2022/03/14 05:01:39;;;;;;;16.25;6.78;;;7.10;99.90;;;;;;5006128;28;20414;-66
2022/03/14 05:04:05;;;;;;;14.90;6.70;;;7.00;99.90;;;;;;5007409;28;21272;-65
2022/03/14 05:06:34;;;;;;;13.38;5.72;;;7.10;99.90;;;;;;5010203;28;20037;-65
2022/03/14 05:09:01;;;;;;;13.43;5.88;;;7.00;99.90;;;;;;5012244;28;20206;-65
2022/03/14 05:11:27;;;;;;;12.73;5.85;;;7.10;99.90;;;;;;5007475;28;20041;-66
2022/03/14 05:13:53;;;;;;;14.05;6.32;;;7.10;99.90;;;;;;5006257;28;20034;-66
2022/03/14 05:16:19;;;;;;;19.00;8.55;;;7.00;99.90;;;;;;5003926;28;20046;-69
2022/03/14 05:18:46;;;;;;;22.15;8.90;;;6.90;99.90;;;;;;5011993;28;20469;-68
2022/03/14 05:21:11;;;;;;;21.02;9.05;;;6.80;99.90;;;;;;5019086;28;20036;-68
2022/03/14 05:23:37;;;;;;;19.95;9.15;;;6.80;99.90;;;;;;5009449;28;20531;-67
2022/03/14 05:26:04;;;;;;;23.35;9.77;;;6.70;99.90;;;;;;5011947;28;20608;-67
2022/03/14 05:28:30;;;;;;;26.63;11.00;;;6.70;99.90;;;;;;5010913;28;20021;-68
2022/03/14 05:30:56;;;;;;;27.83;10.40;;;6.70;99.90;;;;;;5009231;28;20041;-66
2022/03/14 05:33:22;;;;;;;25.05;10.40;;;6.70;99.90;;;;;;5011242;28;20044;-67
2022/03/14 05:35:48;;;;;;;27.33;11.00;;;6.70;99.90;;;;;;5015431;28;20034;-66
2022/03/14 05:38:14;;;;;;;25.30;11.07;;;6.70;99.90;;;;;;5014455;28;20452;-65
2022/03/14 05:40:40;;;;;;;26.00;10.77;;;6.70;99.90;;;;;;5009711;28;20105;-65
2022/03/14 05:43:12;;;;;;;26.83;11.25;;;6.70;99.90;;;;;;5010766;28;20091;-66
2022/03/14 05:45:37;;;;;;;28.90;11.57;;;6.70;99.90;;;;;;5015236;28;20036;-69
2022/03/14 05:48:03;;;;;;;35.70;11.60;;;6.70;99.90;;;;;;5007118;28;20694;-69
2022/03/14 05:50:29;;;;;;;31.48;12.95;;;6.80;99.90;;;;;;5013182;28;20040;-67
2022/03/14 05:52:55;;;;;;;30.90;13.05;;;6.70;99.90;;;;;;5010727;28;20025;-67
2022/03/14 05:55:21;;;;;;;29.08;12.02;;;6.70;99.90;;;;;;5015995;28;20038;-67
2022/03/14 05:57:47;;;;;;;31.42;12.43;;;6.70;99.90;;;;;;5017499;28;20038;-66
2022/03/14 06:00:20;;;;;;;28.65;12.10;;;6.80;99.90;;;;;;5011706;28;20030;-67
2022/03/14 06:02:47;;;;;;;28.42;12.35;;;6.70;99.90;;;;;;5010468;28;20096;-64
2022/03/14 06:05:13;;;;;;;36.85;12.50;;;6.80;99.90;;;;;;5012040;28;20034;-66
2022/03/14 06:07:40;;;;;;;34.50;13.00;;;6.80;99.90;;;;;;5017099;28;20357;-67
2022/03/14 06:10:07;;;;;;;29.75;12.57;;;6.70;99.90;;;;;;5008360;28;20022;-67
2022/03/14 06:12:33;;;;;;;34.13;12.70;;;6.70;99.90;;;;;;5011280;28;20121;-67
2022/03/14 06:15:00;;;;;;;30.27;12.98;;;6.70;99.90;;;;;;5020540;28;20113;-66
2022/03/14 06:17:26;;;;;;;30.90;13.35;;;6.70;99.90;;;;;;5011332;28;20294;-67
2022/03/14 06:19:53;;;;;;;30.80;12.70;;;6.70;99.90;;;;;;5013363;28;20034;-66
2022/03/14 06:22:22;;;;;;;29.83;11.98;;;6.70;99.90;;;;;;5009710;28;20034;-68
2022/03/14 06:24:49;;;;;;;29.65;12.63;;;6.70;99.90;;;;;;5011347;28;20037;-65
2022/03/14 06:27:15;;;;;;;27.35;12.50;;;6.80;99.90;;;;;;5015427;28;20021;-65
2022/03/14 06:29:42;;;;;;;31.10;12.63;;;6.80;99.90;;;;;;5012053;28;20034;-65
2022/03/14 06:32:11;;;;;;;33.22;13.20;;;6.80;99.90;;;;;;5009675;28;20512;-68
2022/03/14 06:34:38;;;;;;;29.60;13.25;;;6.70;99.90;;;;;;5017042;28;20080;-66
2022/03/14 06:37:06;;;;;;;32.20;13.70;;;6.70;99.90;;;;;;5015026;28;20030;-72
2022/03/14 06:39:32;;;;;;;30.35;13.15;;;6.70;99.90;;;;;;5010772;28;20033;-65
2022/03/14 06:41:59;;;;;;;32.60;13.45;;;6.70;99.90;;;;;;5002538;28;20036;-64
2022/03/14 06:44:29;;;;;;;32.78;13.50;;;6.70;99.90;;;;;;5014831;28;20100;-64
2022/03/14 06:46:55;;;;;;;33.03;13.65;;;6.70;99.90;;;;;;5019607;28;20014;-64
2022/03/14 06:49:21;;;;;;;34.50;15.18;;;6.70;99.90;;;;;;5012322;28;20042;-65
2022/03/14 06:51:47;;;;;;;36.42;14.70;;;6.70;99.90;;;;;;5012059;28;20045;-64
2022/03/14 06:54:14;;;;;;;35.72;14.13;;;6.80;99.90;;;;;;5013890;28;20485;-64
2022/03/14 06:56:41;;;;;;;35.35;13.68;;;6.80;99.90;;;;;;5014874;28;20534;-64
2022/03/14 06:59:07;;;;;;;31.98;13.23;;;6.90;99.90;;;;;;5014757;28;20104;-64
2022/03/14 07:01:34;;;;;;;32.08;13.90;;;6.90;99.90;;;;;;5031897;28;20431;-64
2022/03/14 07:04:00;;;;;;;30.77;12.20;;;6.90;99.90;;;;;;5029317;28;20054;-64
2022/03/14 07:06:25;;;;;;;29.20;12.73;;;7.00;99.90;;;;;;5013287;28;20136;-64
2022/03/14 07:08:51;;;;;;;31.40;14.02;;;7.10;99.90;;;;;;5014267;28;20072;-63
2022/03/14 07:11:17;;;;;;;37.50;15.60;;;7.10;99.90;;;;;;5011752;28;20118;-64
2022/03/14 07:13:42;;;;;;;35.35;14.07;;;7.20;99.90;;;;;;5017552;28;20088;-64
2022/03/14 07:16:08;;;;;;;28.13;11.90;;;7.20;99.90;;;;;;5011141;28;20025;-65
2022/03/14 07:18:34;;;;;;;25.88;11.00;;;7.20;99.90;;;;;;5011652;28;20089;-63
2022/03/14 07:21:00;;;;;;;23.13;8.80;;;7.20;99.90;;;;;;5010946;28;20464;-65
2022/03/14 07:23:26;;;;;;;21.85;9.02;;;7.10;99.90;;;;;;5011323;28;20045;-64
2022/03/14 07:25:51;;;;;;;18.33;7.97;;;7.10;99.90;;;;;;5010540;28;20177;-64
2022/03/14 07:28:18;;;;;;;17.08;7.80;;;7.10;99.90;;;;;;5011674;28;20487;-64
2022/03/14 07:30:44;;;;;;;19.27;8.00;;;7.20;99.90;;;;;;5022191;28;20392;-65
2022/03/14 07:33:10;;;;;;;12.82;5.88;;;7.40;99.90;;;;;;5010762;28;20033;-65
2022/03/14 07:35:36;;;;;;;13.85;5.60;;;7.60;99.90;;;;;;5011129;28;20030;-63
2022/03/14 07:38:03;;;;;;;9.18;4.82;;;7.60;99.90;;;;;;5010285;28;20782;-65
2022/03/14 07:40:29;;;;;;;11.43;5.07;;;7.70;99.90;;;;;;5009739;28;20021;-65
2022/03/14 07:42:59;;;;;;;8.95;3.90;;;7.90;99.90;;;;;;5010513;28;20022;-65
2022/03/14 07:45:26;;;;;;;9.00;4.45;;;8.00;99.90;;;;;;5013916;28;20076;-65
2022/03/14 07:47:54;;;;;;;9.63;4.22;;;8.10;99.90;;;;;;5015179;28;20145;-64
2022/03/14 07:50:20;;;;;;;9.15;3.45;;;8.10;99.90;;;;;;5014389;28;20034;-65
2022/03/14 07:52:47;;;;;;;9.18;3.85;;;8.10;99.90;;;;;;5019607;28;20025;-65
2022/03/14 07:55:14;;;;;;;11.95;3.22;;;8.20;99.90;;;;;;5017427;28;20057;-64
2022/03/14 07:57:40;;;;;;;8.95;2.72;;;8.30;99.90;;;;;;5020910;28;20025;-65
2022/03/14 08:00:18;;;;;;;10.52;2.95;;;8.40;99.90;;;;;;5017825;28;20136;-62
2022/03/14 08:02:45;;;;;;;6.80;2.88;;;8.40;99.90;;;;;;5014608;28;20054;-64
2022/03/14 08:05:18;;;;;;;5.28;2.35;;;8.40;99.90;;;;;;5024668;28;20033;-63
2022/03/14 08:07:46;;;;;;;5.90;1.85;;;8.40;99.90;;;;;;5021776;28;20479;-64
2022/03/14 08:10:16;;;;;;;7.95;2.33;;;8.30;99.90;;;;;;5021728;28;20096;-65
2022/03/14 08:12:53;;;;;;;9.77;1.83;;;8.30;99.90;;;;;;5024214;28;20040;-65
2022/03/14 08:15:19;;;;;;;7.45;1.80;;;8.40;99.90;;;;;;5012805;28;20047;-66
2022/03/14 08:17:46;;;;;;;8.68;2.05;;;8.70;99.90;;;;;;5012907;28;20021;-64
2022/03/14 08:20:12;;;;;;;7.20;1.80;;;8.80;99.90;;;;;;5015987;28;20563;-64
2022/03/14 08:22:39;;;;;;;3.22;1.40;;;8.90;99.90;;;;;;5019592;28;20368;-65
2022/03/14 08:25:05;;;;;;;14.95;1.67;;;8.70;99.90;;;;;;5015526;28;20045;-64
2022/03/14 08:27:31;;;;;;;3.67;1.67;;;8.60;99.90;;;;;;5021480;28;20040;-64
2022/03/14 08:29:58;;;;;;;3.70;1.60;;;8.30;99.90;;;;;;5020965;28;20053;-63
2022/03/14 08:32:24;;;;;;;8.48;1.52;;;8.20;99.90;;;;;;5015345;28;20043;-63
2022/03/14 08:34:53;;;;;;;6.65;1.90;;;8.10;99.90;;;;;;5013339;28;20037;-63
2022/03/14 08:37:20;;;;;;;2.78;1.58;;;8.10;99.90;;;;;;5013802;28;20029;-64
2022/03/14 08:39:47;;;;;;;4.35;1.90;;;8.00;99.90;;;;;;5010475;28;20033;-64
2022/03/14 08:42:14;;;;;;;7.53;1.95;;;8.10;99.90;;;;;;5023870;28;20087;-63
2022/03/14 08:44:40;;;;;;;5.15;2.15;;;8.10;99.90;;;;;;5019407;28;20033;-62
2022/03/14 08:47:06;;;;;;;5.20;2.42;;;8.10;99.90;;;;;;5015665;28;20439;-64
2022/03/14 08:49:32;;;;;;;4.68;2.08;;;8.10;99.90;;;;;;5012375;28;20042;-64
2022/03/14 08:51:58;;;;;;;5.65;2.42;;;8.10;99.90;;;;;;5026324;28;20025;-64
2022/03/14 08:54:24;;;;;;;5.20;2.10;;;8.10;99.90;;;;;;5021493;28;20071;-66
2022/03/14 08:56:50;;;;;;;5.85;2.28;;;8.10;99.90;;;;;;5014228;28;20096;-64
2022/03/14 08:59:15;;;;;;;4.07;1.90;;;8.00;99.90;;;;;;5017769;28;20795;-65
2022/03/14 09:01:42;;;;;;;5.82;1.88;;;8.00;99.90;;;;;;5012387;28;20110;-63
2022/03/14 09:04:07;;;;;;;5.07;1.95;;;8.00;99.90;;;;;;5010021;28;21858;-64
2022/03/14 09:06:36;;;;;;;3.25;1.70;;;8.00;99.90;;;;;;5020072;28;20040;-65
2022/03/14 09:09:03;;;;;;;4.03;1.55;;;8.00;99.90;;;;;;5021382;28;20884;-63
2022/03/14 09:11:29;;;;;;;5.38;1.80;;;8.00;99.90;;;;;;5027614;28;20403;-65
2022/03/14 09:13:55;;;;;;;4.22;1.38;;;8.10;99.90;;;;;;5025474;28;20030;-64
2022/03/14 09:16:21;;;;;;;6.28;1.52;;;8.20;99.90;;;;;;5024157;28;20038;-64
2022/03/14 09:18:47;;;;;;;3.58;1.02;;;8.20;99.90;;;;;;5015440;28;20040;-65
2022/03/14 09:21:14;;;;;;;7.22;1.33;;;8.30;99.90;;;;;;5010760;28;20037;-63
2022/03/14 09:23:41;;;;;;;4.57;1.30;;;8.20;99.90;;;;;;5022831;28;20029;-65
2022/03/14 09:26:07;;;;;;;4.25;1.40;;;8.20;99.90;;;;;;5025544;28;20725;-66
2022/03/14 09:28:34;;;;;;;6.20;1.02;;;8.30;99.90;;;;;;5012741;28;20038;-63
2022/03/14 09:31:00;;;;;;;5.25;1.13;;;8.60;99.90;;;;;;5012317;28;20132;-64
2022/03/14 09:33:25;;;;;;;2.88;1.02;;;8.70;99.90;;;;;;5023383;28;20041;-64
2022/03/14 09:35:51;;;;;;;4.13;1.15;;;8.60;99.90;;;;;;5024946;28;20041;-63
2022/03/14 09:38:17;;;;;;;6.55;2.00;;;8.40;99.90;;;;;;5018601;28;20152;-64
2022/03/14 09:40:45;;;;;;;3.17;1.38;;;8.40;99.90;;;;;;5007277;28;20030;-64
2022/03/14 09:43:17;;;;;;;7.95;1.20;;;8.40;99.90;;;;;;5015446;28;20393;-64
2022/03/14 09:45:47;;;;;;;6.07;1.23;;;8.30;99.90;;;;;;5022617;28;20462;-65
2022/03/14 09:48:14;;;;;;;5.80;2.03;;;8.30;99.90;;;;;;5016360;28;20547;-63
2022/03/14 09:50:41;;;;;;;4.22;1.10;;;8.30;99.90;;;;;;5015653;28;20026;-64
2022/03/14 09:53:09;;;;;;;4.90;0.90;;;8.30;99.90;;;;;;5019074;28;20472;-64
2022/03/14 09:55:44;;;;;;;4.93;1.20;;;8.50;99.90;;;;;;5024451;28;20034;-65
2022/03/14 09:58:15;;;;;;;6.10;1.25;;;8.50;99.90;;;;;;5013796;28;20030;-64
2022/03/14 10:00:44;;;;;;;4.28;0.95;;;8.60;99.90;;;;;;5024136;28;20037;-64
2022/03/14 10:03:11;;;;;;;2.97;1.10;;;8.70;99.90;;;;;;5014359;28;20038;-64
2022/03/14 10:05:37;;;;;;;2.88;0.98;;;8.80;99.90;;;;;;5024456;28;20044;-65
2022/03/14 10:08:03;;;;;;;6.25;1.45;;;8.80;99.90;;;;;;5015910;28;20033;-65
2022/03/14 10:10:29;;;;;;;10.07;1.40;;;8.80;99.90;;;;;;5018040;28;20034;-65
2022/03/14 10:12:57;;;;;;;3.65;0.80;;;9.10;99.90;;;;;;5008411;28;20033;-64
2022/03/14 10:15:25;;;;;;;3.40;1.00;;;9.70;99.90;;;;;;5022374;28;20022;-64
2022/03/14 10:17:53;;;;;;;5.85;1.05;;;10.10;99.90;;;;;;5029027;28;20029;-64
2022/03/14 10:20:20;;;;;;;4.35;0.80;;;10.40;99.90;;;;;;5010158;28;20030;-65
2022/03/14 10:22:47;;;;;;;3.58;1.00;;;10.20;99.90;;;;;;5023938;28;20025;-65
2022/03/14 10:25:15;;;;;;;7.75;1.20;;;10.10;99.90;;;;;;5021574;28;20376;-66
2022/03/14 10:27:45;;;;;;;2.63;0.90;;;10.70;99.90;;;;;;5028944;28;20036;-66
2022/03/14 10:30:26;;;;;;;4.72;0.60;;;10.90;99.90;;;;;;5017228;28;20111;-64
2022/03/14 10:33:08;;;;;;;1.30;0.60;;;10.60;99.90;;;;;;5010891;28;20025;-64
2022/03/14 10:35:41;;;;;;;2.42;0.82;;;10.50;99.90;;;;;;5025560;28;20667;-64
2022/03/14 10:38:09;;;;;;;1.77;0.70;;;10.50;99.90;;;;;;5019721;28;20057;-65
2022/03/14 10:40:41;;;;;;;3.45;1.05;;;10.50;99.90;;;;;;5011741;28;20077;-65
2022/03/14 10:43:20;;;;;;;4.65;0.80;;;10.40;99.90;;;;;;5022737;28;20407;-67
2022/03/14 10:45:46;;;;;;;1.50;0.80;;;10.30;99.90;;;;;;4999134;28;20029;-64
2022/03/14 10:48:12;;;;;;;5.28;0.88;;;10.40;99.90;;;;;;5012877;28;20038;-66
2022/03/14 10:50:40;;;;;;;1.45;0.63;;;10.40;99.90;;;;;;5025513;28;20064;-65
2022/03/14 10:53:17;;;;;;;2.60;0.85;;;10.30;99.90;;;;;;5027726;28;20063;-66
2022/03/14 10:55:45;;;;;;;1.27;0.60;;;10.60;99.90;;;;;;5026979;28;20109;-65
2022/03/14 10:58:20;;;;;;;3.45;0.85;;;10.50;99.90;;;;;;5011364;28;20105;-66
2022/03/14 11:00:53;;;;;;;2.13;0.80;;;10.60;99.90;;;;;;5022229;28;20030;-68
2022/03/14 11:03:40;;;;;;;2.75;0.63;;;10.50;99.90;;;;;;5023753;28;20524;-68
2022/03/14 11:06:08;;;;;;;3.65;0.85;;;10.40;99.90;;;;;;5009436;28;20032;-69
2022/03/14 11:08:40;;;;;;;3.53;0.80;;;11.00;99.90;;;;;;5016934;28;20026;-69
2022/03/14 11:11:12;;;;;;;2.47;0.80;;;10.60;99.90;;;;;;5026500;28;20037;-67
2022/03/14 11:13:46;;;;;;;3.58;0.95;;;10.80;99.90;;;;;;5000862;28;20121;-68
2022/03/14 11:16:19;;;;;;;8.32;0.77;;;10.60;99.90;;;;;;5022646;28;21193;-68
2022/03/14 11:18:46;;;;;;;3.00;0.70;;;10.80;99.90;;;;;;5009693;28;20038;-66
2022/03/14 11:21:18;;;;;;;6.25;0.90;;;10.80;99.90;;;;;;5011703;28;20033;-72
2022/03/14 11:23:45;;;;;;;6.57;0.90;;;11.10;99.90;;;;;;5013201;28;20037;-68
2022/03/14 11:26:12;;;;;;;6.95;0.90;;;11.10;99.90;;;;;;5027520;28;20710;-68
2022/03/14 11:28:41;;;;;;;4.13;0.90;;;11.00;99.90;;;;;;5022533;28;20034;-68
2022/03/14 11:31:06;;;;;;;4.80;0.90;;;10.80;99.90;;;;;;5022384;28;20430;-65
2022/03/14 11:33:35;;;;;;;4.05;0.70;;;10.70;99.90;;;;;;5031387;28;20041;-67
2022/03/14 11:36:05;;;;;;;9.55;1.13;;;11.30;99.90;;;;;;5019798;28;20030;-69
2022/03/14 11:38:31;;;;;;;3.20;1.00;;;11.80;99.90;;;;;;5022247;28;20095;-64
2022/03/14 11:40:58;;;;;;;8.55;0.90;;;11.90;99.90;;;;;;5008780;28;20276;-65
2022/03/14 11:43:24;;;;;;;2.92;1.10;;;12.20;99.90;;;;;;5009940;28;20096;-66
2022/03/14 11:45:52;;;;;;;4.10;0.90;;;11.80;99.90;;;;;;5010514;28;20026;-65
2022/03/14 11:48:19;;;;;;;4.43;1.10;;;12.00;98.30;;;;;;5010558;28;20511;-66
2022/03/14 11:50:57;;;;;;;4.30;0.90;;;12.30;97.70;;;;;;5012735;28;20084;-67
2022/03/14 11:53:24;;;;;;;3.55;1.00;;;12.00;99.20;;;;;;5021860;28;20051;-67
2022/03/14 11:55:56;;;;;;;2.38;0.85;;;12.20;97.80;;;;;;5030457;28;20026;-68
2022/03/14 11:58:41;;;;;;;3.38;0.98;;;12.30;97.80;;;;;;5016224;28;20026;-67
2022/03/14 12:01:14;;;;;;;2.00;0.73;;;12.00;96.20;;;;;;5012554;28;20499;-67
2022/03/14 12:03:45;;;;;;;6.47;1.10;;;11.80;99.50;;;;;;5017102;28;20053;-64
2022/03/14 12:06:11;;;;;;;5.47;1.10;;;12.10;99.90;;;;;;5023243;28;20021;-65
2022/03/14 12:08:37;;;;;;;2.60;1.10;;;12.60;98.00;;;;;;5011708;28;20037;-63
2022/03/14 12:11:34;;;;;;;27.33;1.30;;;12.80;98.20;;;;;;5015515;28;20092;-66
2022/03/14 12:14:01;;;;;;;2.90;0.85;;;13.00;95.90;;;;;;5011107;28;20033;-64
2022/03/14 12:16:38;;;;;;;3.28;1.00;;;12.90;95.80;;;;;;5020935;28;20041;-66
2022/03/14 12:19:27;;;;;;;7.03;1.42;;;12.70;95.40;;;;;;5030344;28;20025;-67
2022/03/14 12:21:52;;;;;;;4.93;1.10;;;12.60;92.10;;;;;;5019705;28;20124;-65
2022/03/14 12:24:38;;;;;;;4.15;1.10;;;12.20;92.40;;;;;;5025838;28;20116;-66
2022/03/14 12:27:33;;;;;;;4.00;1.35;;;12.20;92.10;;;;;;5018086;28;20112;-67
2022/03/14 12:30:00;;;;;;;3.10;1.05;;;12.20;94.60;;;;;;5022010;28;20460;-65
2022/03/14 12:32:35;;;;;;;3.05;1.20;;;12.20;92.90;;;;;;5015085;28;20022;-66
2022/03/14 12:35:22;;;;;;;3.67;1.13;;;12.40;91.20;;;;;;5022041;28;20104;-65
2022/03/14 12:37:50;;;;;;;3.67;1.33;;;12.00;94.80;;;;;;5023460;28;20034;-65
2022/03/14 12:40:21;;;;;;;6.82;1.38;;;12.30;96.40;;;;;;5026718;28;20100;-65
2022/03/14 12:42:55;;;;;;;3.67;1.00;;;12.60;94.60;;;;;;5029967;28;20487;-64
2022/03/14 12:45:24;;;;;;;5.60;1.33;;;12.80;91.40;;;;;;5011719;28;20044;-66
2022/03/14 12:47:55;;;;;;;5.80;1.02;;;12.50;93.30;;;;;;5012244;28;20376;-65